Bauang Weathercam more information Bauang Weathercam


Thunder radar more information blitzortung!


Rain radar more information rain snow radar


Visit other webcamsites:

Live CameraLivecam

EarthCamLivecam

YoutubeYoutube live stream



Nearby METAR Reports

   
RPLC - Angeles/Pampanga, Philippines
Distance from station: S 165 km
Updated: 29-01-2020 23:00
Mostly Cloudy  
Mostly Cloudy  
   Wind: NNW 4.1 m/s
Wind: NNW 4.1 m/s
Temperature: 24°C
Dew Point: 21°C
Humidity: 83%
Barometer: 1013 hPa
Clouds: Mostly Cloudy
Visibility: 7 km
Cloud details: Partly Cloudy 609.6 m,
Mostly Cloudy 3048 m
RPLC 291500Z 33008KT 7000 SCT020 BKN100 24/21 Q1013 NOSIG RMK A2991
RPLI - Laoag Intl(Ph-Ar, Philippines
Distance from station: N 172 km
Updated: 29-01-2020 23:00
Mostly Cloudy  
Mostly Cloudy  
   Wind: NE 5.1 m/s
Wind: NE 5.1 m/s
Temperature: 23°C
Dew Point: 20°C
Humidity: 83%
Barometer: 1014 hPa
Clouds: Mostly Cloudy
Visibility: 8 km
Cloud details: Partly Cloudy 548.6 m,
Mostly Cloudy 3048 m
RPLI 291500Z 04010KT 8000 SCT018 BKN100 23/20 Q1014 NOSIG RMK A2994
RPLB - Olongapo/Subic, Philippines
Distance from station: S 203 km
Updated: 29-01-2020 23:00
Mostly Cloudy  
Mostly Cloudy  
   Wind: NE 2.6 m/s
Wind: NE 2.6 m/s
Temperature: 25°C
Dew Point: 21°C
Humidity: 79%
Barometer: 1013 hPa
Clouds: Mostly Cloudy
Visibility: More than 10 km
Cloud details: Few Clouds 609.6 m,
Mostly Cloudy 2438.4 m
RPLB 291500Z 05005KT 010V070 9999 FEW020 BKN080 25/21 Q1013 NOSIG RMK A2991
RPLL - Ninoy Aquino Int, Philippines
Distance from station: SSE 246 km
Updated: 29-01-2020 23:00
Few Clouds  
Few Clouds  
   Wind: NNE 5.1 m/s
Wind: NNE 5.1 m/s
Temperature: 26°C
Dew Point: 21°C
Humidity: 74%
Barometer: 1012 hPa
Clouds: Few Clouds
Visibility: More than 10 km
Cloud details: Few Clouds 701 m
RPLL 291500Z 02010KT 9999 FEW023 26/21 Q1012 NOSIG RMK A2988
RPMR - Romblon/Tablas I, Philippines
Distance from station: SSE 498 km
Updated: 29-01-2020 17:00
NOT Current
Light Showers, Rain, Overcast  
Light Showers, Rain, Overcast  
   Wind: SSW 2.1 m/s
Wind: SSW 2.1 m/s
Temperature: 29°C
Heat Index: 33°C
Dew Point: 24°C
Humidity: 74%
Barometer: 1010 hPa
Clouds: Overcast
Visibility: More than 10 km
Cloud details: Few Clouds 548.6 m,
Overcast 2438.4 m
RPMR 290900Z 20004KT 9999 -SHRA FEW018 OVC080 29/24 Q1010 NOSIG RMK A2983
RPVP - Puerto Princesa, Philippines
Distance from station: SSW 778 km
Updated: 29-01-2020 23:00
Few Clouds  
Few Clouds  
   Wind: NNW 4.1 m/s
Wind: NNW 4.1 m/s
Temperature: 26°C
Dew Point: 22°C
Humidity: 79%
Barometer: 1012 hPa
Clouds: Few Clouds
Visibility: More than 10 km
Cloud details: Few Clouds 579.1 m
RPVP 291500Z 33008KT 9999 FEW019 26/22 Q1012 RMK A2988
RPVM - Mactan-Cebu, Philippines
Distance from station: SSE 800 km
Updated: 29-01-2020 23:00
Partly Cloudy  
Partly Cloudy  
   Wind: NNW 3.1 m/s
Wind: NNW 3.1 m/s
Temperature: 27°C
Heat Index: 29°C
Dew Point: 23°C
Humidity: 79%
Barometer: 1011 hPa
Clouds: Partly Cloudy
Visibility: More than 10 km
Cloud details: Few Clouds 609.6 m,
Partly Cloudy 3048 m
RPVM 291500Z 33006KT 320V050 9999 FEW020 SCT100 27/23 Q1011 RMK A2985
RPMZ - Zamboanga (civ/A, Philippines
Distance from station: S 1090 km
Updated: 29-01-2020 23:00
Few Clouds  
Few Clouds  
   Wind: varies 1 m/s
Wind: varies 1 m/s
Temperature: 25°C
Dew Point: 23°C
Humidity: 89%
Barometer: 1011 hPa
Clouds: Few Clouds
Visibility: More than 10 km
Cloud details: Few Clouds 518.2 m
RPMZ 291500Z VRB02KT 9999 FEW017 25/23 Q1011 RMK A2985
RPMD - Davao/Francisco, Philippines
Distance from station: SSE 1198 km
Updated: 29-01-2020 23:00
Light Rain, Overcast  
Light Rain, Overcast  
   Wind: Calm
Wind: Calm
Temperature: 25°C
Dew Point: 23°C
Humidity: 89%
Barometer: 1011 hPa
Clouds: Overcast
Visibility: 7 km
Cloud details: Partly Cloudy 487.7 m,
Overcast 2438.4 m
RPMD 291500Z 00000KT 7000 -RA SCT016 OVC080 25/23 Q1011 RMK A2985

Script developed by  Saratoga-weather.org Adapted for the template by  Weerstation Leuven

You find our weather info also at:

WeatherCloud

Austria Weather Network

HAMweather, WeatherForYou, PWS Weather

Philippine Atmospheric, Geophysical and Astronomical Services Administration